Time;durP1;ratioP1;P1;durP2;ratioP2;P2;SDS_P1;SDS_P2;PMS_P1;PMS_P2;Temp;Humidity;BMP_temperature;BMP_pressure;BME280_temperature;BME280_humidity;BME280_pressure;Samples;Min_cycle;Max_cycle;Signal;HPM_P1;HPM_P2
2022/10/21 00:00:39;;;;;;;20.33;10.85;;;;;12.10;96265.00;;;;8362333;28;20236;-80
2022/10/21 00:04:42;;;;;;;20.00;10.90;;;;;12.20;96272.00;;;;8362032;28;20236;-83
2022/10/21 00:08:47;;;;;;;19.38;11.13;;;;;12.20;96258.00;;;;8386759;28;20693;-82
2022/10/21 00:13:21;;;;;;;19.27;10.45;;;;;12.20;96239.00;;;;8362431;28;20626;-82
2022/10/21 00:17:24;;;;;;;17.88;11.27;;;;;12.10;96248.00;;;;8361318;28;20558;-82
2022/10/21 00:21:58;;;;;;;18.55;11.02;;;;;12.10;96267.00;;;;8361969;28;20229;-81
2022/10/21 00:26:03;;;;;;;29.38;11.75;;;;;12.20;96275.00;;;;8375919;28;20626;-83
2022/10/21 00:30:08;;;;;;;17.13;11.20;;;;;12.20;96252.00;;;;8370220;28;20326;-84
2022/10/21 00:34:42;;;;;;;21.95;11.77;;;;;12.20;96219.00;;;;8361855;28;20606;-84
2022/10/21 00:38:47;;;;;;;20.60;11.75;;;;;12.10;96223.00;;;;8361536;28;20570;-83
2022/10/21 00:42:52;;;;;;;22.10;12.10;;;;;12.10;96238.00;;;;8361491;28;20297;-83
2022/10/21 00:47:26;;;;;;;20.65;11.90;;;;;12.10;96240.00;;;;8362260;28;20231;-83
2022/10/21 00:51:30;;;;;;;17.55;11.13;;;;;12.20;96234.00;;;;8360808;28;20645;-83
2022/10/21 00:56:05;;;;;;;19.85;11.32;;;;;12.30;96214.00;;;;8360630;28;20735;-84
2022/10/21 01:00:11;;;;;;;21.95;11.45;;;;;12.30;96215.00;;;;8361426;28;20268;-83
2022/10/21 01:04:14;;;;;;;20.30;11.70;;;;;12.30;96213.00;;;;8360710;28;20237;-83
2022/10/21 01:08:19;;;;;;;18.13;11.05;;;;;12.30;96205.00;;;;8361417;28;20573;-83
2022/10/21 01:12:34;;;;;;;17.80;10.52;;;;;12.40;96208.00;;;;8361271;28;20284;-83
2022/10/21 01:17:03;;;;;;;19.02;11.52;;;;;12.40;96216.00;;;;8361573;28;20657;-82
2022/10/21 01:21:33;;;;;;;19.50;10.90;;;;;12.50;96213.00;;;;8360528;28;20276;-83
2022/10/21 01:26:07;;;;;;;18.63;11.13;;;;;12.50;96206.00;;;;8361202;28;20621;-82
2022/10/21 01:30:31;;;;;;;16.55;11.13;;;;;12.50;96205.00;;;;8360209;28;20213;-85
2022/10/21 01:34:40;;;;;;;21.05;10.57;;;;;12.50;96218.00;;;;8360807;28;20511;-85
2022/10/21 01:39:18;;;;;;;18.75;11.75;;;;;12.40;96255.00;;;;8360089;28;20566;-85
2022/10/21 01:43:34;;;;;;;22.00;11.88;;;;;12.20;96250.00;;;;8360862;28;20281;-85
2022/10/21 01:48:02;;;;;;;21.48;11.98;;;;;12.10;96251.00;;;;8360292;28;20248;-86
2022/10/21 01:52:07;;;;;;;18.90;11.95;;;;;12.00;96250.00;;;;8361159;28;20228;-85
2022/10/21 01:56:42;;;;;;;21.52;12.10;;;;;11.90;96252.00;;;;8359861;28;20224;-87
2022/10/21 02:00:47;;;;;;;36.75;12.57;;;;;11.80;96245.00;;;;8360834;28;20223;-86
2022/10/21 02:04:54;;;;;;;22.10;12.98;;;;;11.80;96231.00;;;;8359782;28;20258;-85
2022/10/21 02:08:58;;;;;;;24.65;12.88;;;;;11.70;96229.00;;;;8365317;28;20220;-85
2022/10/21 02:13:04;;;;;;;23.15;12.60;;;;;11.60;96211.00;;;;8365723;28;20653;-85
2022/10/21 02:17:10;;;;;;;23.88;12.48;;;;;11.60;96212.00;;;;8367092;28;20216;-84
2022/10/21 02:21:18;;;;;;;25.25;12.55;;;;;11.60;96208.00;;;;8366316;28;20231;-85
2022/10/21 02:25:50;;;;;;;23.20;12.70;;;;;11.50;96205.00;;;;8366515;28;20231;-83
2022/10/21 02:29:57;;;;;;;28.23;13.07;;;;;11.50;96206.00;;;;8366033;28;20226;-84
2022/10/21 02:34:07;;;;;;;26.92;11.65;;;;;11.50;96185.00;;;;8366403;28;20232;-84
2022/10/21 02:38:40;;;;;;;20.83;11.88;;;;;11.40;96175.00;;;;8365261;28;20224;-83
2022/10/21 02:42:46;;;;;;;23.73;12.02;;;;;11.30;96172.00;;;;8366034;28;20228;-84
2022/10/21 02:47:23;;;;;;;21.35;12.43;;;;;11.30;96172.00;;;;8364098;28;20228;-86
2022/10/21 02:51:26;;;;;;;26.80;12.45;;;;;11.20;96182.00;;;;8365488;28;20697;-83
2022/10/21 02:55:31;;;;;;;20.35;12.98;;;;;11.20;96185.00;;;;8365175;28;20259;-84
2022/10/21 03:00:05;;;;;;;25.52;12.90;;;;;11.20;96177.00;;;;8364468;28;20226;-86
2022/10/21 03:04:08;;;;;;;24.73;12.70;;;;;11.20;96170.00;;;;8364313;28;20216;-86
2022/10/21 03:08:45;;;;;;;30.85;14.77;;;;;11.10;96181.00;;;;8364881;28;20224;-84
2022/10/21 03:12:50;;;;;;;24.58;13.40;;;;;11.20;96183.00;;;;8363703;28;20639;-84
2022/10/21 03:17:25;;;;;;;33.22;12.98;;;;;11.20;96164.00;;;;8364748;28;20227;-85
2022/10/21 03:21:28;;;;;;;25.58;14.00;;;;;11.20;96168.00;;;;8364091;28;20217;-84
2022/10/21 03:26:05;;;;;;;23.70;13.18;;;;;11.30;96167.00;;;;8364087;28;20227;-87
2022/10/21 03:30:43;;;;;;;25.33;13.73;;;;;11.30;96164.00;;;;8363526;28;20250;-85
2022/10/21 03:35:17;;;;;;;22.63;12.25;;;;;11.40;96187.00;;;;8363994;28;20230;-88
2022/10/21 03:39:53;;;;;;;21.38;13.98;;;;;11.40;96198.00;;;;8363408;28;20680;-89
2022/10/21 03:43:56;;;;;;;21.65;13.02;;;;;11.50;96179.00;;;;8363526;28;20224;-84
2022/10/21 03:48:01;;;;;;;24.80;12.93;;;;;11.60;96161.00;;;;8363585;28;20227;-83
2022/10/21 03:52:35;;;;;;;25.98;13.13;;;;;11.70;96146.00;;;;8362821;28;20266;-82
2022/10/21 03:56:43;;;;;;;20.02;12.90;;;;;11.70;96161.00;;;;8356909;28;20616;-84
2022/10/21 04:01:16;;;;;;;27.05;14.07;;;;;11.70;96148.00;;;;8363665;28;20220;-83
2022/10/21 04:10:18;;;;;;;25.60;12.73;;;;;11.90;96139.00;;;;8362285;28;20262;-84
2022/10/21 04:14:21;;;;;;;26.45;12.77;;;;;11.90;96137.00;;;;8362785;28;20539;-84
2022/10/21 04:18:58;;;;;;;26.63;12.02;;;;;11.80;96114.00;;;;8362592;28;20227;-82
2022/10/21 04:23:35;;;;;;;22.73;13.60;;;;;11.80;96123.00;;;;8361915;28;20223;-87
2022/10/21 04:28:14;;;;;;;26.13;13.20;;;;;11.80;96121.00;;;;8362014;28;20281;-85
2022/10/21 04:32:49;;;;;;;21.58;12.90;;;;;11.80;96121.00;;;;8354565;28;20219;-83
2022/10/21 04:37:23;;;;;;;21.17;11.95;;;;;11.80;96118.00;;;;8361569;28;20212;-83
2022/10/21 04:42:00;;;;;;;21.95;12.55;;;;;11.80;96115.00;;;;8359432;28;20227;-80
2022/10/21 04:46:36;;;;;;;20.10;11.93;;;;;11.80;96117.00;;;;8361248;28;20228;-79
2022/10/21 04:51:16;;;;;;;20.50;11.00;;;;;11.90;96109.00;;;;8360205;28;20224;-77
2022/10/21 04:55:50;;;;;;;22.92;11.40;;;;;11.90;96097.00;;;;8361006;28;20235;-77
2022/10/21 05:00:27;;;;;;;18.10;12.27;;;;;11.80;96075.00;;;;8359678;28;20223;-77
2022/10/21 05:05:04;;;;;;;20.98;12.75;;;;;11.80;96061.00;;;;8359764;28;20669;-78
2022/10/21 05:09:09;;;;;;;19.13;11.57;;;;;11.80;96050.00;;;;8360617;28;20265;-78
2022/10/21 05:13:46;;;;;;;23.05;12.20;;;;;11.80;96047.00;;;;8359645;28;20222;-81
2022/10/21 05:18:23;;;;;;;25.17;11.57;;;;;11.80;96045.00;;;;8359879;28;20562;-79
2022/10/21 05:23:00;;;;;;;21.33;11.93;;;;;11.80;96031.00;;;;8360607;28;20220;-81
2022/10/21 05:27:38;;;;;;;21.83;12.25;;;;;11.80;96031.00;;;;8360620;28;20289;-82
2022/10/21 05:32:11;;;;;;;23.42;13.38;;;;;11.90;96033.00;;;;8360061;28;20214;-81
2022/10/21 05:36:48;;;;;;;23.17;13.18;;;;;11.90;96039.00;;;;8359791;28;20273;-79
2022/10/21 05:41:26;;;;;;;18.85;11.70;;;;;12.00;96029.00;;;;8362233;28;20223;-78
2022/10/21 05:46:04;;;;;;;26.35;12.65;;;;;12.00;96053.00;;;;8367315;28;20554;-80
2022/10/21 05:50:37;;;;;;;18.85;12.02;;;;;12.00;96068.00;;;;8366274;28;20236;-77
2022/10/21 05:55:15;;;;;;;24.88;12.25;;;;;12.10;96068.00;;;;8366585;28;20224;-77
2022/10/21 05:59:18;;;;;;;25.05;12.80;;;;;12.10;96055.00;;;;8365835;28;20266;-79
2022/10/21 06:03:57;;;;;;;22.67;12.40;;;;;12.10;96052.00;;;;8366469;28;20243;-79
2022/10/21 06:08:31;;;;;;;21.48;12.15;;;;;12.10;96047.00;;;;8366499;28;20254;-80
2022/10/21 06:18:06;;;;;;;21.00;11.70;;;;;12.20;96061.00;;;;8365546;28;20262;-76
2022/10/21 06:22:43;;;;;;;22.30;11.82;;;;;12.20;96057.00;;;;8367022;28;20266;-81
2022/10/21 06:27:21;;;;;;;23.42;12.88;;;;;12.30;96060.00;;;;8366560;28;20224;-82
2022/10/21 06:31:55;;;;;;;21.48;12.18;;;;;12.30;96063.00;;;;8365491;28;20228;-81
2022/10/21 06:36:32;;;;;;;16.35;11.77;;;;;12.40;96058.00;;;;8365852;28;20606;-81
2022/10/21 06:41:10;;;;;;;22.35;12.73;;;;;12.50;96076.00;;;;8365920;28;20292;-82
2022/10/21 06:45:47;;;;;;;24.88;12.68;;;;;12.50;96066.00;;;;8364024;28;20216;-80
2022/10/21 06:49:50;;;;;;;23.65;12.25;;;;;12.50;96074.00;;;;8365271;28;20222;-82
2022/10/21 06:54:27;;;;;;;16.25;11.18;;;;;12.50;96069.00;;;;8386072;28;20276;-81
2022/10/21 06:58:31;;;;;;;19.05;10.82;;;;;12.60;96067.00;;;;8364316;28;20668;-81
2022/10/21 07:02:35;;;;;;;21.40;11.32;;;;;12.70;96062.00;;;;8363762;28;20684;-80
2022/10/21 07:06:39;;;;;;;17.17;11.07;;;;;12.80;96068.00;;;;8363887;28;20220;-80
2022/10/21 07:10:44;;;;;;;20.35;11.02;;;;;12.90;96075.00;;;;8364137;28;20582;-81
2022/10/21 07:14:48;;;;;;;22.00;11.35;;;;;12.90;96078.00;;;;8363703;28;20274;-81
2022/10/21 07:19:24;;;;;;;18.17;11.20;;;;;13.00;96086.00;;;;8365043;28;20495;-81
2022/10/21 07:23:27;;;;;;;26.60;11.80;;;;;13.00;96079.00;;;;8363622;28;20293;-81
2022/10/21 07:27:30;;;;;;;16.92;11.23;;;;;13.20;96058.00;;;;8364781;28;20610;-81
2022/10/21 07:31:35;;;;;;;22.60;12.35;;;;;13.30;96057.00;;;;8364047;28;20247;-81
2022/10/21 07:36:09;;;;;;;31.25;11.90;;;;;13.40;96051.00;;;;8362950;28;20228;-81
2022/10/21 07:40:13;;;;;;;22.45;11.55;;;;;13.50;96058.00;;;;8364371;28;20213;-82
2022/10/21 07:44:18;;;;;;;22.60;11.38;;;;;13.60;96033.00;;;;8363288;28;20246;-82
2022/10/21 07:48:22;;;;;;;20.27;11.90;;;;;13.60;96031.00;;;;8363789;28;20239;-83
2022/10/21 07:52:26;;;;;;;16.58;11.82;;;;;13.60;96024.00;;;;8363313;28;20220;-82
2022/10/21 07:56:33;;;;;;;22.00;11.93;;;;;13.60;96025.00;;;;8363757;28;20216;-82
2022/10/21 08:00:36;;;;;;;22.17;11.35;;;;;13.80;96020.00;;;;8363377;28;20608;-83
2022/10/21 08:04:39;;;;;;;17.90;11.00;;;;;14.10;96024.00;;;;8362588;28;20227;-82
2022/10/21 08:08:42;;;;;;;17.20;11.82;;;;;14.40;96025.00;;;;8362642;28;20232;-82
2022/10/21 08:12:47;;;;;;;19.42;11.80;;;;;14.70;96021.00;;;;8362360;28;20239;-82
2022/10/21 08:16:51;;;;;;;19.50;11.55;;;;;14.90;96020.00;;;;8363096;28;20217;-82
2022/10/21 08:20:55;;;;;;;22.38;10.57;;;;;15.20;96027.00;;;;8362984;28;20217;-82
2022/10/21 08:24:58;;;;;;;17.95;11.75;;;;;15.40;96040.00;;;;8362283;28;20232;-83
2022/10/21 08:29:36;;;;;;;15.85;11.50;;;;;15.50;96050.00;;;;8362428;28;20570;-83
2022/10/21 08:33:42;;;;;;;22.45;11.55;;;;;15.60;96045.00;;;;8362668;28;20232;-83
2022/10/21 08:37:47;;;;;;;15.13;10.70;;;;;15.80;96032.00;;;;8362634;28;20227;-83
2022/10/21 08:42:02;;;;;;;26.25;11.27;;;;;15.90;96033.00;;;;8361859;28;20323;-83
2022/10/21 08:46:13;;;;;;;23.02;13.38;;;;;15.90;96037.00;;;;8362188;28;20224;-83
2022/10/21 08:50:20;;;;;;;24.42;12.35;;;;;16.00;96041.00;;;;8361235;28;20231;-84
2022/10/21 08:54:28;;;;;;;21.08;12.20;;;;;16.30;96043.00;;;;8362078;28;20221;-84
2022/10/21 08:58:59;;;;;;;15.68;10.48;;;;;16.60;96029.00;;;;8361299;28;20582;-84
2022/10/21 09:03:16;;;;;;;17.15;10.20;;;;;16.80;96031.00;;;;8361299;28;20307;-84
2022/10/21 09:07:26;;;;;;;19.35;11.45;;;;;17.00;96033.00;;;;8360947;28;20224;-85
2022/10/21 09:11:41;;;;;;;22.15;13.77;;;;;17.10;96037.00;;;;8359365;28;20290;-85
2022/10/21 09:15:53;;;;;;;19.70;10.18;;;;;17.30;96017.00;;;;8361254;28;20224;-84
2022/10/21 09:20:26;;;;;;;24.73;10.48;;;;;17.50;96033.00;;;;8360749;28;20213;-84
2022/10/21 09:24:35;;;;;;;15.45;9.63;;;;;17.70;96034.00;;;;8360997;28;20216;-81
2022/10/21 09:29:15;;;;;;;17.88;10.15;;;;;17.90;96046.00;;;;8356302;28;20221;-81
2022/10/21 09:33:23;;;;;;;17.02;8.88;;;;;18.00;96060.00;;;;8360596;28;20224;-80
2022/10/21 09:37:57;;;;;;;13.68;9.13;;;;;17.80;96077.00;;;;8360029;28;20274;-82
2022/10/21 09:42:00;;;;;;;14.85;10.90;;;;;17.90;96085.00;;;;8360765;28;20217;-83
2022/10/21 09:46:16;;;;;;;16.13;10.05;;;;;17.80;96101.00;;;;8360395;28;20303;-83
2022/10/21 09:50:52;;;;;;;14.50;10.30;;;;;17.40;96101.00;;;;8361805;28;20231;-85
2022/10/21 09:55:26;;;;;;;15.40;10.15;;;;;17.10;96097.00;;;;8361545;28;20620;-84
2022/10/21 09:59:32;;;;;;;17.95;10.70;;;;;16.90;96092.00;;;;8361001;28;20228;-85
2022/10/21 10:04:10;;;;;;;17.35;11.93;;;;;16.60;96094.00;;;;8357761;28;20224;-86
2022/10/21 10:08:21;;;;;;;19.85;12.05;;;;;16.40;96092.00;;;;8359364;28;20221;-85
2022/10/21 10:12:26;;;;;;;15.73;10.15;;;;;16.30;96089.00;;;;8359342;28;20704;-84
2022/10/21 10:17:15;;;;;;;17.17;11.05;;;;;16.10;96081.00;;;;8360953;28;20240;-83
2022/10/21 10:21:21;;;;;;;17.73;11.27;;;;;16.10;96081.00;;;;8369113;28;20212;-83
2022/10/21 10:25:55;;;;;;;21.92;11.07;;;;;16.20;96090.00;;;;8360399;28;20267;-83
2022/10/21 10:30:00;;;;;;;15.02;10.38;;;;;16.30;96087.00;;;;8364859;28;20607;-83
2022/10/21 10:34:06;;;;;;;15.05;10.02;;;;;16.50;96091.00;;;;8364160;28;20235;-84
2022/10/21 10:38:40;;;;;;;19.50;10.85;;;;;16.70;96078.00;;;;8366619;28;20277;-84
2022/10/21 10:42:46;;;;;;;15.43;10.60;;;;;16.90;96068.00;;;;8365805;28;20274;-85
2022/10/21 10:47:30;;;;;;;20.73;10.95;;;;;17.10;96096.00;;;;8366472;28;20220;-80
2022/10/21 10:52:06;;;;;;;13.75;9.90;;;;;17.60;96100.00;;;;8364973;28;20540;-80
2022/10/21 10:56:19;;;;;;;16.40;11.75;;;;;18.00;96093.00;;;;8364744;28;20212;-83
2022/10/21 11:00:24;;;;;;;16.88;10.73;;;;;18.40;96087.00;;;;8365909;28;20229;-83
2022/10/21 11:04:34;;;;;;;12.82;9.30;;;;;18.70;96093.00;;;;8364670;28;20282;-78
2022/10/21 11:08:41;;;;;;;16.60;9.65;;;;;18.90;96078.00;;;;8365236;28;20221;-79
2022/10/21 11:17:55;;;;;;;13.30;9.13;;;;;19.40;96060.00;;;;8364402;28;20278;-79
2022/10/21 11:22:12;;;;;;;13.85;9.52;;;;;19.60;96052.00;;;;8364121;28;20442;-79
2022/10/21 11:26:21;;;;;;;10.90;9.00;;;;;19.60;96051.00;;;;8364804;28;20696;-79
2022/10/21 11:30:31;;;;;;;12.95;8.27;;;;;19.50;96033.00;;;;8364214;28;20678;-77
2022/10/21 11:34:46;;;;;;;13.95;8.82;;;;;19.50;96048.00;;;;8364091;28;20228;-79
2022/10/21 11:39:01;;;;;;;17.27;8.38;;;;;19.50;96039.00;;;;8364003;28;20221;-79
2022/10/21 11:43:20;;;;;;;11.77;7.80;;;;;19.30;96034.00;;;;8364492;28;20223;-79
2022/10/21 11:47:33;;;;;;;11.73;7.53;;;;;19.10;96021.00;;;;8363578;28;20228;-79
2022/10/21 11:51:50;;;;;;;18.58;7.97;;;;;19.00;96034.00;;;;8364103;28;20216;-79
2022/10/21 11:56:02;;;;;;;12.60;8.10;;;;;18.80;96030.00;;;;8363997;28;20217;-79
2022/10/21 12:00:31;;;;;;;13.93;8.18;;;;;18.90;96041.00;;;;8363398;28;20323;-79
2022/10/21 12:04:45;;;;;;;26.27;8.25;;;;;19.20;96023.00;;;;8362939;28;20668;-79
2022/10/21 12:08:56;;;;;;;13.32;7.63;;;;;19.50;96032.00;;;;8363790;28;20658;-79
2022/10/21 12:13:04;;;;;;;15.13;7.43;;;;;19.50;96038.00;;;;8362184;28;20221;-79
2022/10/21 12:17:13;;;;;;;16.40;8.82;;;;;19.40;96040.00;;;;8363283;28;20219;-79
2022/10/21 12:21:21;;;;;;;10.95;7.68;;;;;19.40;96055.00;;;;8362738;28;20232;-79
2022/10/21 12:25:33;;;;;;;12.40;7.53;;;;;19.50;96062.00;;;;8362685;28;20228;-79
2022/10/21 12:30:04;;;;;;;10.43;7.63;;;;;19.60;96066.00;;;;8362616;28;20236;-79
2022/10/21 12:34:10;;;;;;;16.17;9.35;;;;;19.50;96064.00;;;;8362461;28;20213;-79
2022/10/21 12:38:25;;;;;;;23.73;9.38;;;;;19.50;96077.00;;;;8361986;28;20224;-80
2022/10/21 12:42:30;;;;;;;15.52;8.25;;;;;19.60;96068.00;;;;8361793;28;20223;-79
2022/10/21 12:47:06;;;;;;;12.32;6.78;;;;;19.70;96056.00;;;;8361927;28;20228;-79
2022/10/21 12:51:20;;;;;;;9.10;5.95;;;;;19.70;96052.00;;;;8361317;28;20224;-79
2022/10/21 12:55:25;;;;;;;11.68;5.63;;;;;19.60;96061.00;;;;8361522;28;20669;-79
2022/10/21 13:00:05;;;;;;;9.40;5.68;;;;;19.40;96047.00;;;;8360821;28;20220;-78
2022/10/21 13:04:51;;;;;;;16.40;6.60;;;;;19.30;96052.00;;;;8361577;28;20224;-79
2022/10/21 13:08:55;;;;;;;10.35;6.13;;;;;19.00;96030.00;;;;8361292;28;20221;-79
2022/10/21 13:13:33;;;;;;;11.35;6.18;;;;;18.90;96027.00;;;;8360064;28;20244;-77
2022/10/21 13:17:53;;;;;;;14.07;6.13;;;;;19.00;96032.00;;;;8259211;28;20219;-79
2022/10/21 13:22:03;;;;;;;13.95;6.70;;;;;19.20;96028.00;;;;8312998;28;20256;-79
2022/10/21 13:26:20;;;;;;;13.25;6.55;;;;;19.30;96032.00;;;;8360891;28;20228;-79
2022/10/21 13:30:28;;;;;;;11.60;5.40;;;;;19.30;96024.00;;;;8360779;28;20609;-79
2022/10/21 13:34:32;;;;;;;11.05;6.18;;;;;19.20;96036.00;;;;8360549;28;20673;-79
2022/10/21 13:39:19;;;;;;;13.48;6.22;;;;;19.20;96041.00;;;;8360548;28;20228;-79
2022/10/21 13:43:27;;;;;;;16.70;6.15;;;;;19.10;96047.00;;;;8361246;28;20238;-79
2022/10/21 13:47:33;;;;;;;16.35;5.65;;;;;19.10;96053.00;;;;8359889;28;20225;-79
2022/10/21 13:51:46;;;;;;;13.55;5.78;;;;;19.40;96048.00;;;;8359883;28;20257;-79
2022/10/21 13:56:19;;;;;;;10.18;5.50;;;;;19.50;96065.00;;;;8361231;28;20270;-80
2022/10/21 14:00:24;;;;;;;17.25;5.88;;;;;19.40;96062.00;;;;8360763;28;20224;-79
2022/10/21 14:04:58;;;;;;;8.20;5.15;;;;;19.30;96069.00;;;;8364583;28;20650;-79
2022/10/21 14:09:04;;;;;;;11.57;5.55;;;;;19.10;96060.00;;;;8365417;28;20212;-78
2022/10/21 14:13:11;;;;;;;9.90;5.50;;;;;19.00;96067.00;;;;8366977;28;20220;-79
2022/10/21 14:17:17;;;;;;;11.90;6.45;;;;;18.90;96059.00;;;;8366394;28;20212;-79
2022/10/21 14:21:51;;;;;;;11.95;5.95;;;;;18.70;96067.00;;;;8366792;28;20232;-79
2022/10/21 14:25:58;;;;;;;14.82;6.75;;;;;18.70;96060.00;;;;8366013;28;20269;-79
2022/10/21 14:30:05;;;;;;;13.65;6.72;;;;;18.60;96067.00;;;;8366749;28;20251;-79
2022/10/21 14:34:21;;;;;;;15.35;6.68;;;;;18.60;96063.00;;;;8365633;28;20225;-79
2022/10/21 14:38:27;;;;;;;12.27;6.43;;;;;18.60;96066.00;;;;8366496;28;20220;-79
2022/10/21 14:42:32;;;;;;;13.32;6.82;;;;;18.60;96066.00;;;;8364755;28;20220;-78
2022/10/21 14:46:46;;;;;;;14.68;6.60;;;;;18.50;96069.00;;;;8365147;28;20674;-78
2022/10/21 14:51:17;;;;;;;15.40;6.82;;;;;18.40;96065.00;;;;8364319;28;20224;-79
2022/10/21 14:55:28;;;;;;;12.77;7.35;;;;;18.30;96073.00;;;;8365731;28;20224;-79
2022/10/21 14:59:37;;;;;;;10.98;6.85;;;;;18.30;96070.00;;;;8364736;28;20626;-79
2022/10/21 15:03:43;;;;;;;11.82;7.40;;;;;18.30;96067.00;;;;8364901;28;20216;-79
2022/10/21 15:08:35;;;;;;;15.07;7.90;;;;;18.20;96059.00;;;;8365407;28;20236;-79
2022/10/21 15:12:40;;;;;;;15.70;7.72;;;;;18.10;96068.00;;;;8310964;28;20240;-79
2022/10/21 15:16:49;;;;;;;11.40;7.78;;;;;17.90;96052.00;;;;8363418;28;20610;-80
2022/10/21 15:21:31;;;;;;;19.17;8.40;;;;;17.80;96051.00;;;;8364198;28;20516;-79
2022/10/21 15:25:37;;;;;;;11.32;7.55;;;;;17.70;96056.00;;;;8364529;28;20217;-78
2022/10/21 15:29:45;;;;;;;13.48;8.18;;;;;17.60;96065.00;;;;8363632;28;20228;-79
2022/10/21 15:33:48;;;;;;;13.02;7.72;;;;;17.50;96062.00;;;;8364275;28;20316;-79
2022/10/21 15:38:05;;;;;;;16.48;8.43;;;;;17.40;96068.00;;;;8364220;28;20224;-79
2022/10/21 15:42:10;;;;;;;14.48;8.32;;;;;17.40;96063.00;;;;8364041;28;20216;-79
2022/10/21 15:46:13;;;;;;;12.68;8.38;;;;;17.40;96065.00;;;;8363414;28;20232;-79
2022/10/21 15:50:47;;;;;;;13.73;8.20;;;;;17.30;96057.00;;;;8364331;28;20224;-79
2022/10/21 15:54:53;;;;;;;11.70;8.20;;;;;17.20;96070.00;;;;8363196;28;20264;-79
2022/10/21 15:58:57;;;;;;;15.98;7.93;;;;;17.10;96072.00;;;;8363610;28;20223;-79
2022/10/21 16:03:34;;;;;;;12.77;8.50;;;;;16.90;96068.00;;;;8363052;28;20225;-79
2022/10/21 16:07:37;;;;;;;14.23;7.60;;;;;16.70;96068.00;;;;8363302;28;20227;-79
2022/10/21 16:11:42;;;;;;;18.88;8.20;;;;;16.60;96062.00;;;;8361909;28;20220;-79
2022/10/21 16:16:01;;;;;;;15.93;8.30;;;;;16.40;96067.00;;;;8362235;28;20542;-79
2022/10/21 16:20:35;;;;;;;17.33;7.43;;;;;16.30;96065.00;;;;8363307;28;20231;-79
2022/10/21 16:24:38;;;;;;;13.63;8.20;;;;;16.10;96051.00;;;;8361682;28;20208;-79
2022/10/21 16:28:43;;;;;;;15.80;8.35;;;;;15.90;96046.00;;;;8361637;28;20658;-79
2022/10/21 16:33:17;;;;;;;23.35;10.20;;;;;15.70;96054.00;;;;8360356;28;20231;-79
2022/10/21 16:37:25;;;;;;;12.57;8.02;;;;;15.60;96062.00;;;;8362003;28;20213;-78
2022/10/21 16:41:28;;;;;;;15.52;8.85;;;;;15.50;96074.00;;;;8362522;28;20220;-79
2022/10/21 16:46:11;;;;;;;16.60;9.00;;;;;15.40;96075.00;;;;8362117;28;20550;-79
2022/10/21 16:50:20;;;;;;;14.85;8.43;;;;;15.40;96081.00;;;;8362180;28;20570;-79
2022/10/21 16:54:23;;;;;;;11.07;8.32;;;;;15.30;96072.00;;;;8362309;28;20220;-79
2022/10/21 16:58:26;;;;;;;24.60;8.90;;;;;15.30;96078.00;;;;8362382;28;20237;-79
2022/10/21 17:03:02;;;;;;;20.65;9.18;;;;;15.30;96072.00;;;;8362014;28;20228;-79
2022/10/21 17:07:05;;;;;;;16.88;9.45;;;;;15.30;96093.00;;;;8361821;28;20524;-79
2022/10/21 17:11:13;;;;;;;14.55;9.80;;;;;15.40;96092.00;;;;8360507;28;20227;-78
2022/10/21 17:15:22;;;;;;;17.50;9.63;;;;;15.40;96097.00;;;;8361429;28;20569;-79
2022/10/21 17:19:26;;;;;;;19.42;9.45;;;;;15.40;96098.00;;;;8361269;28;20669;-79
2022/10/21 17:23:29;;;;;;;21.27;9.82;;;;;15.50;96094.00;;;;8361539;28;20216;-79
2022/10/21 17:28:03;;;;;;;19.77;10.25;;;;;15.40;96092.00;;;;8361473;28;20228;-79
2022/10/21 17:32:07;;;;;;;16.90;10.38;;;;;15.40;96093.00;;;;8361223;28;20573;-79
2022/10/21 17:36:12;;;;;;;22.63;10.52;;;;;15.40;96090.00;;;;8361279;28;20224;-78
2022/10/21 17:40:45;;;;;;;20.55;11.07;;;;;15.30;96103.00;;;;8367619;28;20274;-79
2022/10/21 17:44:48;;;;;;;17.88;10.65;;;;;15.30;96108.00;;;;8368336;28;20212;-79
2022/10/21 17:48:53;;;;;;;27.88;11.48;;;;;15.20;96097.00;;;;8368060;28;20266;-79
2022/10/21 17:52:58;;;;;;;22.52;11.15;;;;;15.10;96103.00;;;;8367981;28;20230;-80
2022/10/21 17:57:32;;;;;;;19.70;11.98;;;;;15.00;96098.00;;;;8367644;28;20227;-79
2022/10/21 18:01:35;;;;;;;23.25;13.43;;;;;15.00;96113.00;;;;8367780;28;20224;-79
2022/10/21 18:05:41;;;;;;;24.23;12.25;;;;;14.90;96112.00;;;;8367636;28;20240;-79
2022/10/21 18:09:45;;;;;;;22.08;14.35;;;;;14.90;96111.00;;;;8367115;28;20228;-79
2022/10/21 18:13:49;;;;;;;21.02;12.82;;;;;14.80;96108.00;;;;8366621;28;20232;-79
2022/10/21 18:17:57;;;;;;;29.70;13.75;;;;;14.70;96107.00;;;;8367494;28;20216;-79
2022/10/21 18:22:31;;;;;;;24.50;12.68;;;;;14.70;96104.00;;;;8366423;28;20236;-79
2022/10/21 18:26:36;;;;;;;32.30;15.32;;;;;14.60;96093.00;;;;8367169;28;20217;-79
2022/10/21 18:30:42;;;;;;;30.30;15.20;;;;;14.60;96085.00;;;;8365631;28;20236;-78
2022/10/21 18:34:45;;;;;;;34.95;15.25;;;;;14.60;96079.00;;;;8362838;28;20219;-77
2022/10/21 18:38:48;;;;;;;30.80;15.13;;;;;14.60;96079.00;;;;8365649;28;20224;-76
2022/10/21 18:42:53;;;;;;;28.75;15.95;;;;;14.60;96079.00;;;;8365592;28;20696;-75
2022/10/21 18:47:33;;;;;;;29.40;15.57;;;;;14.50;96082.00;;;;8365054;28;20290;-77
2022/10/21 18:52:10;;;;;;;29.58;15.93;;;;;14.50;96090.00;;;;8364857;28;20220;-77
2022/10/21 18:56:47;;;;;;;31.25;15.50;;;;;14.50;96083.00;;;;8364558;28;20216;-76
2022/10/21 19:00:52;;;;;;;28.70;15.40;;;;;14.50;96075.00;;;;8365329;28;20250;-76
2022/10/21 19:05:25;;;;;;;36.10;16.50;;;;;14.50;96076.00;;;;8364741;28;20224;-77
2022/10/21 19:10:02;;;;;;;29.10;16.30;;;;;14.40;96068.00;;;;8365256;28;20596;-77
2022/10/21 19:19:22;;;;;;;30.15;16.98;;;;;14.40;96067.00;;;;8364305;28;20235;-76
2022/10/21 19:23:26;;;;;;;31.02;15.57;;;;;14.40;96058.00;;;;8363894;28;20249;-77
2022/10/21 19:27:29;;;;;;;29.75;15.82;;;;;14.40;96037.00;;;;8364351;28;20232;-76
2022/10/21 19:31:33;;;;;;;34.63;16.88;;;;;14.30;96058.00;;;;8364205;28;20228;-79
2022/10/21 19:36:10;;;;;;;32.38;17.05;;;;;14.20;96057.00;;;;8364514;28;20244;-78
2022/10/21 19:40:43;;;;;;;34.05;16.35;;;;;14.20;96063.00;;;;8361333;28;20216;-76
2022/10/21 19:45:20;;;;;;;41.95;18.58;;;;;14.10;96055.00;;;;8361516;28;20224;-76
2022/10/21 19:49:57;;;;;;;41.00;18.85;;;;;14.10;96066.00;;;;8363876;28;20255;-77
2022/10/21 19:54:04;;;;;;;36.70;20.67;;;;;14.10;96060.00;;;;8363389;28;20782;-78
2022/10/21 19:58:38;;;;;;;33.10;17.73;;;;;14.10;96067.00;;;;8363082;28;20225;-76
2022/10/21 20:02:41;;;;;;;37.47;17.40;;;;;14.00;96083.00;;;;8363761;28;20216;-77
2022/10/21 20:07:18;;;;;;;36.88;17.88;;;;;13.90;96091.00;;;;8363901;28;20224;-77
2022/10/21 20:11:56;;;;;;;36.22;19.58;;;;;13.80;96108.00;;;;8362426;28;20237;-76
2022/10/21 20:16:00;;;;;;;40.63;18.30;;;;;13.80;96107.00;;;;8363189;28;20311;-78
2022/10/21 20:20:04;;;;;;;34.70;18.67;;;;;13.90;96104.00;;;;8361625;28;20301;-77
2022/10/21 20:24:08;;;;;;;37.03;17.83;;;;;13.90;96107.00;;;;8362735;28;20220;-77
2022/10/21 20:28:13;;;;;;;40.65;19.52;;;;;13.90;96103.00;;;;8362998;28;20217;-77
2022/10/21 20:32:16;;;;;;;42.03;19.45;;;;;14.00;96102.00;;;;8362343;28;20224;-76
2022/10/21 20:36:52;;;;;;;46.05;20.15;;;;;13.90;96105.00;;;;8360360;28;20240;-77
2022/10/21 20:41:01;;;;;;;39.10;19.40;;;;;13.90;96113.00;;;;8362128;28;20221;-77
2022/10/21 20:45:06;;;;;;;37.60;18.83;;;;;13.90;96110.00;;;;8361888;28;20278;-77
2022/10/21 20:49:40;;;;;;;43.58;19.75;;;;;13.80;96104.00;;;;8362627;28;20274;-77
2022/10/21 20:53:44;;;;;;;46.60;22.08;;;;;13.80;96106.00;;;;8360487;28;20231;-77
2022/10/21 20:57:52;;;;;;;44.45;20.00;;;;;13.80;96105.00;;;;8362046;28;20528;-77
2022/10/21 21:02:28;;;;;;;50.50;22.23;;;;;13.70;96088.00;;;;8362067;28;20228;-77
2022/10/21 21:06:36;;;;;;;45.40;19.98;;;;;13.70;96089.00;;;;8362091;28;20223;-77
2022/10/21 21:10:39;;;;;;;47.08;20.60;;;;;13.70;96091.00;;;;8361273;28;20589;-78
2022/10/21 21:14:42;;;;;;;50.25;21.58;;;;;13.60;96098.00;;;;8361226;28;20237;-78
2022/10/21 21:18:52;;;;;;;48.88;22.40;;;;;13.70;96093.00;;;;8360412;28;20228;-78